Time;durP1;ratioP1;P1;durP2;ratioP2;P2;SDS_P1;SDS_P2;PMS_P1;PMS_P2;Temp;Humidity;BMP_temperature;BMP_pressure;BME280_temperature;BME280_humidity;BME280_pressure;Samples;Min_cycle;Max_cycle;Signal;HPM_P1;HPM_P2
2022/11/12 00:00:43;;;;;;;8.80;6.80;;;;;;;-145.14;100.00;70583.66;5027729;28;20686;-74
2022/11/12 00:03:09;;;;;;;8.23;6.50;;;;;;;-145.14;100.00;70583.66;5024229;28;20886;-74
2022/11/12 00:05:34;;;;;;;12.07;6.40;;;;;;;-145.14;100.00;70583.66;5017615;28;20445;-74
2022/11/12 00:08:00;;;;;;;8.83;6.50;;;;;;;-145.14;100.00;70583.66;5018335;28;20184;-74
2022/11/12 00:10:26;;;;;;;9.37;6.63;;;;;;;-145.14;100.00;70583.66;5021958;28;20247;-74
2022/11/12 00:12:52;;;;;;;6.80;6.10;;;;;;;-145.14;100.00;70583.66;5035202;28;20443;-74
2022/11/12 00:15:18;;;;;;;8.53;6.73;;;;;;;-145.14;100.00;70583.66;5019690;28;20442;-74
2022/11/12 00:17:43;;;;;;;7.87;6.60;;;;;;;-145.14;100.00;70583.66;5013395;28;20192;-74
2022/11/12 00:20:09;;;;;;;12.13;6.60;;;;;;;-145.14;100.00;70583.66;5017956;28;20201;-74
2022/11/12 00:22:35;;;;;;;7.70;6.90;;;;;;;-145.14;100.00;70583.66;5021230;28;20196;-74
2022/11/12 00:25:01;;;;;;;6.93;5.73;;;;;;;-145.14;100.00;70583.66;5022582;28;20435;-74
2022/11/12 00:27:26;;;;;;;6.90;5.90;;;;;;;-145.14;100.00;70583.66;5023087;28;20199;-74
2022/11/12 00:29:52;;;;;;;7.47;6.43;;;;;;;-145.14;100.00;70583.66;5025600;28;20193;-74
2022/11/12 00:32:18;;;;;;;8.80;6.27;;;;;;;-145.14;100.00;70583.66;5016831;28;20208;-74
2022/11/12 00:34:44;;;;;;;9.20;6.50;;;;;;;-145.14;100.00;70583.66;5021553;28;20662;-74
2022/11/12 00:37:09;;;;;;;6.20;5.50;;;;;;;-145.14;100.00;70583.66;5023345;28;20438;-74
2022/11/12 00:39:34;;;;;;;12.30;6.90;;;;;;;-145.14;100.00;70583.66;5020562;28;20187;-74
2022/11/12 00:42:00;;;;;;;10.53;6.20;;;;;;;-145.14;100.00;70583.66;5021257;28;20212;-74
2022/11/12 00:44:26;;;;;;;6.80;5.40;;;;;;;-145.14;100.00;70583.66;5016085;28;20193;-74
2022/11/12 00:46:52;;;;;;;8.10;5.80;;;;;;;-145.14;100.00;70583.66;5021556;28;20199;-74
2022/11/12 00:49:17;;;;;;;8.67;5.57;;;;;;;-145.14;100.00;70583.66;5020035;28;20818;-74
2022/11/12 00:51:43;;;;;;;7.50;6.10;;;;;;;-145.14;100.00;70583.66;5021645;28;20223;-74
2022/11/12 00:54:09;;;;;;;6.80;5.83;;;;;;;-145.14;100.00;70583.66;5034256;28;20192;-74
2022/11/12 00:56:35;;;;;;;7.30;5.57;;;;;;;-145.14;100.00;70583.66;5019625;28;20443;-74
2022/11/12 00:59:00;;;;;;;7.30;5.40;;;;;;;-145.14;100.00;70583.66;5032403;28;20448;-74
2022/11/12 01:01:26;;;;;;;9.40;6.20;;;;;;;-145.14;100.00;70583.66;5016339;28;20208;-74
2022/11/12 01:03:52;;;;;;;7.00;6.03;;;;;;;-145.14;100.00;70583.66;5021971;28;20188;-74
2022/11/12 01:06:21;;;;;;;6.50;5.80;;;;;;;-145.14;100.00;70583.66;5023338;28;20238;-74
2022/11/12 01:08:47;;;;;;;9.80;7.43;;;;;;;-145.14;100.00;70583.66;5014249;28;20530;-74
2022/11/12 01:11:16;;;;;;;7.23;6.30;;;;;;;-145.14;100.00;70583.66;5013890;28;20458;-74
2022/11/12 01:13:45;;;;;;;8.93;6.87;;;;;;;-145.14;100.00;70583.66;5023486;28;20451;-74
2022/11/12 01:16:14;;;;;;;9.40;7.53;;;;;;;-145.14;100.00;70583.66;5014231;28;20438;-74
2022/11/12 01:18:40;;;;;;;8.70;7.10;;;;;;;-145.14;100.00;70583.66;5013243;28;20493;-74
2022/11/12 01:21:06;;;;;;;8.70;7.27;;;;;;;-145.14;100.00;70583.66;5013083;28;20847;-74
2022/11/12 01:23:38;;;;;;;9.20;6.77;;;;;;;-145.14;100.00;70583.66;5013101;28;20479;-74
2022/11/12 01:26:05;;;;;;;8.03;7.17;;;;;;;-145.14;100.00;70583.66;5015896;28;20455;-74
2022/11/12 01:28:30;;;;;;;9.30;7.80;;;;;;;-145.14;100.00;70583.66;5016717;28;20458;-74
2022/11/12 01:30:56;;;;;;;10.80;7.20;;;;;;;-145.14;100.00;70583.66;5010449;28;20451;-74
2022/11/12 01:33:21;;;;;;;11.00;7.97;;;;;;;-145.14;100.00;70583.66;5018300;28;20262;-74
2022/11/12 01:35:46;;;;;;;10.00;8.20;;;;;;;-145.14;100.00;70583.66;5014977;28;20238;-73
2022/11/12 01:38:12;;;;;;;19.10;8.60;;;;;;;-145.14;100.00;70583.66;5016326;28;20266;-74
2022/11/12 01:40:37;;;;;;;9.67;8.60;;;;;;;-145.14;100.00;70583.66;5018246;28;20362;-71
2022/11/12 01:43:03;;;;;;;10.30;8.80;;;;;;;-145.14;100.00;70583.66;5033354;28;20204;-73
2022/11/12 01:45:28;;;;;;;14.03;7.23;;;;;;;-145.14;100.00;70583.66;5014379;28;20235;-73
2022/11/12 01:47:54;;;;;;;9.97;8.00;;;;;;;-145.14;100.00;70583.66;5019902;28;20213;-73
2022/11/12 01:50:35;;;;;;;12.67;9.27;;;;;;;-145.14;100.00;70583.66;5017206;28;20320;-73
2022/11/12 01:53:05;;;;;;;10.03;8.10;;;;;;;-145.14;100.00;70583.66;5015446;28;20964;-73
2022/11/12 01:55:35;;;;;;;10.50;7.23;;;;;;;-145.14;100.00;70583.66;5013447;28;20475;-73
2022/11/12 01:58:12;;;;;;;8.60;7.33;;;;;;;-145.14;100.00;70583.66;5031380;28;20436;-73
2022/11/12 02:00:39;;;;;;;13.70;9.20;;;;;;;-145.14;100.00;70583.66;5016992;28;20499;-73
2022/11/12 02:03:10;;;;;;;14.03;8.73;;;;;;;-145.14;100.00;70583.66;5013082;28;20449;-73
2022/11/12 02:05:37;;;;;;;13.40;8.17;;;;;;;-145.14;100.00;70583.66;5015348;28;20493;-73
2022/11/12 02:08:06;;;;;;;11.07;7.57;;;;;;;-145.14;100.00;70583.66;5014863;28;20447;-72
2022/11/12 02:10:33;;;;;;;8.40;7.00;;;;;;;-145.14;100.00;70583.66;5020918;28;20458;-73
2022/11/12 02:15:42;;;;;;;7.87;6.90;;;;;;;-145.14;100.00;70583.66;5012215;28;20446;-73
2022/11/12 02:18:08;;;;;;;9.50;7.47;;;;;;;-145.14;100.00;70583.66;5016468;28;20446;-73
2022/11/12 02:20:35;;;;;;;10.63;7.83;;;;;;;-145.14;100.00;70583.66;5016822;28;20215;-72
2022/11/12 02:23:01;;;;;;;8.53;7.50;;;;;;;-145.14;100.00;70583.66;5013428;28;20188;-73
2022/11/12 02:25:27;;;;;;;9.70;7.73;;;;;;;-145.14;100.00;70583.66;5010783;28;20807;-73
2022/11/12 02:27:55;;;;;;;9.00;7.50;;;;;;;-145.14;100.00;70583.66;5011972;28;20191;-73
2022/11/12 02:30:49;;;;;;;9.77;7.83;;;;;;;-145.14;100.00;70583.66;5015707;28;20439;-73
2022/11/12 02:33:15;;;;;;;14.20;8.53;;;;;;;-145.14;100.00;70583.66;5004055;28;20534;-74
2022/11/12 02:35:41;;;;;;;8.57;7.50;;;;;;;-145.14;100.00;70583.66;5015518;28;20562;-73
2022/11/12 02:38:07;;;;;;;8.90;7.20;;;;;;;-145.14;100.00;70583.66;5013863;28;20211;-73
2022/11/12 02:40:33;;;;;;;9.53;7.43;;;;;;;-145.14;100.00;70583.66;5015440;28;20212;-73
2022/11/12 02:42:59;;;;;;;8.00;7.13;;;;;;;-145.14;100.00;70583.66;5012607;28;20530;-73
2022/11/12 02:45:25;;;;;;;10.17;7.70;;;;;;;-145.14;100.00;70583.66;5032136;28;20188;-73
2022/11/12 02:47:51;;;;;;;9.70;7.60;;;;;;;-145.14;100.00;70583.66;5017888;28;20216;-73
2022/11/12 02:50:17;;;;;;;9.70;8.00;;;;;;;-145.14;100.00;70583.66;5031076;28;20466;-76
2022/11/12 02:52:42;;;;;;;11.93;7.03;;;;;;;-145.14;100.00;70583.66;5019564;28;20902;-73
2022/11/12 02:55:09;;;;;;;12.53;8.00;;;;;;;-145.14;100.00;70583.66;5011406;28;20449;-73
2022/11/12 02:57:35;;;;;;;10.53;7.50;;;;;;;-145.14;100.00;70583.66;5016205;28;20249;-73
2022/11/12 03:00:03;;;;;;;9.77;7.23;;;;;;;-145.14;100.00;70583.66;5018489;28;20886;-73
2022/11/12 03:02:29;;;;;;;9.03;7.17;;;;;;;-145.14;100.00;70583.66;5016829;28;20439;-73
2022/11/12 03:04:54;;;;;;;9.03;7.80;;;;;;;-145.14;100.00;70583.66;5031272;28;21158;-72
2022/11/12 03:07:19;;;;;;;9.27;7.30;;;;;;;-145.14;100.00;70583.66;5013472;28;20613;-74
2022/11/12 03:09:45;;;;;;;9.40;7.50;;;;;;;-145.14;100.00;70583.66;5015496;28;21438;-73
2022/11/12 03:12:10;;;;;;;8.80;7.73;;;;;;;-145.14;100.00;70583.66;5015304;28;21160;-73
2022/11/12 03:14:36;;;;;;;11.53;7.40;;;;;;;-145.14;100.00;70583.66;5012551;28;20192;-73
2022/11/12 03:17:01;;;;;;;10.33;7.93;;;;;;;-145.14;100.00;70583.66;5012829;28;20276;-73
2022/11/12 03:19:27;;;;;;;11.10;8.93;;;;;;;-145.14;100.00;70583.66;5017370;28;20192;-73
2022/11/12 03:21:52;;;;;;;9.80;7.70;;;;;;;-145.14;100.00;70583.66;5013313;28;20238;-73
2022/11/12 03:24:18;;;;;;;8.93;8.10;;;;;;;-145.14;100.00;70583.66;5017345;28;20354;-73
2022/11/12 03:26:43;;;;;;;7.80;7.00;;;;;;;-145.14;100.00;70583.66;5012074;28;25853;-73
2022/11/12 03:29:08;;;;;;;8.60;7.70;;;;;;;-145.14;100.00;70583.66;5011655;28;20669;-73
2022/11/12 03:31:34;;;;;;;7.77;6.97;;;;;;;-145.14;100.00;70583.66;5014252;28;20739;-73
2022/11/12 03:34:00;;;;;;;8.87;7.10;;;;;;;-145.14;100.00;70583.66;5016641;28;20189;-73
2022/11/12 03:36:25;;;;;;;9.93;8.13;;;;;;;-145.14;100.00;70583.66;5011135;28;20193;-73
2022/11/12 03:38:51;;;;;;;8.23;7.27;;;;;;;-145.14;100.00;70583.66;5017316;28;20192;-73
2022/11/12 03:41:16;;;;;;;11.23;7.90;;;;;;;-145.14;100.00;70583.66;5014241;28;20266;-73
2022/11/12 03:43:41;;;;;;;12.33;8.37;;;;;;;-145.14;100.00;70583.66;5016809;28;20200;-73
2022/11/12 03:46:07;;;;;;;8.30;7.40;;;;;;;-145.14;100.00;70583.66;5012464;28;20216;-73
2022/11/12 03:48:32;;;;;;;8.80;7.70;;;;;;;-145.14;100.00;70583.66;5014837;28;20203;-73
2022/11/12 03:50:58;;;;;;;11.63;7.83;;;;;;;-145.14;100.00;70583.66;5017202;28;20230;-73
2022/11/12 03:53:25;;;;;;;8.43;7.53;;;;;;;-145.14;100.00;70583.66;5014047;28;20271;-73
2022/11/12 03:55:50;;;;;;;9.67;7.43;;;;;;;-145.14;100.00;70583.66;5017313;28;21391;-73
2022/11/12 03:58:15;;;;;;;9.37;8.10;;;;;;;-145.14;100.00;70583.66;5034052;28;20439;-73
2022/11/12 04:00:41;;;;;;;11.17;7.83;;;;;;;-145.14;100.00;70583.66;5019724;28;20219;-73
2022/11/12 04:03:06;;;;;;;9.43;7.40;;;;;;;-145.14;100.00;70583.66;5016971;28;20247;-73
2022/11/12 04:08:37;;;;;;;8.50;7.63;;;;;;;-145.14;100.00;70583.66;5015923;28;20211;-73
2022/11/12 04:11:11;;;;;;;9.50;7.20;;;;;;;-145.14;100.00;70583.66;5012584;28;20956;-73
2022/11/12 04:13:38;;;;;;;8.00;7.20;;;;;;;-145.14;100.00;70583.66;5032392;28;20451;-73
2022/11/12 04:21:54;;;;;;;8.93;7.40;;;;;;;-145.14;100.00;70583.66;5017661;28;20482;-73
2022/11/12 04:27:23;;;;;;;9.70;8.50;;;;;;;-145.14;100.00;70583.66;5017992;28;20567;-73
2022/11/12 04:32:36;;;;;;;10.47;8.00;;;;;;;-145.14;100.00;70583.66;5022719;28;20441;-73
2022/11/12 04:35:03;;;;;;;9.80;8.10;;;;;;;-145.14;100.00;70583.66;5019282;28;20454;-73
2022/11/12 04:37:43;;;;;;;11.17;9.00;;;;;;;-145.14;100.00;70583.66;5030835;28;20879;-73
2022/11/12 04:46:01;;;;;;;9.17;7.33;;;;;;;-145.14;100.00;70583.66;5019151;28;20430;-73
2022/11/12 04:48:27;;;;;;;9.13;7.27;;;;;;;-145.14;100.00;70583.66;5015356;28;20444;-72
2022/11/12 04:50:55;;;;;;;10.80;8.80;;;;;;;-145.14;100.00;70583.66;5033353;28;20821;-73
2022/11/12 04:53:22;;;;;;;9.97;8.37;;;;;;;-145.14;100.00;70583.66;5016795;28;20191;-73
2022/11/12 04:55:52;;;;;;;10.10;8.27;;;;;;;-145.14;100.00;70583.66;5017972;28;20828;-73
2022/11/12 04:58:18;;;;;;;9.23;7.13;;;;;;;-145.14;100.00;70583.66;5015206;28;20482;-73
2022/11/12 05:00:44;;;;;;;12.77;7.70;;;;;;;-145.14;100.00;70583.66;5010951;28;20886;-73
2022/11/12 05:03:09;;;;;;;9.77;8.77;;;;;;;-145.14;100.00;70583.66;5017863;28;20491;-73
2022/11/12 05:05:35;;;;;;;11.70;7.97;;;;;;;-145.14;100.00;70583.66;5029592;28;20396;-73
2022/11/12 05:08:02;;;;;;;8.10;6.97;;;;;;;-145.14;100.00;70583.66;5017979;28;20534;-73
2022/11/12 05:10:28;;;;;;;8.80;7.73;;;;;;;-145.14;100.00;70583.66;5009788;28;20270;-73
2022/11/12 05:12:54;;;;;;;11.40;7.30;;;;;;;-145.14;100.00;70583.66;5015119;28;20529;-73
2022/11/12 05:15:19;;;;;;;8.70;7.83;;;;;;;-145.14;100.00;70583.66;5017913;28;21920;-73
2022/11/12 05:17:45;;;;;;;9.37;7.30;;;;;;;-145.14;100.00;70583.66;5017199;28;20192;-73
2022/11/12 05:20:12;;;;;;;9.40;7.43;;;;;;;-145.14;100.00;70583.66;5015562;28;20212;-72
2022/11/12 05:22:38;;;;;;;7.83;7.03;;;;;;;-145.14;100.00;70583.66;5018248;28;20199;-73
2022/11/12 05:25:04;;;;;;;9.70;7.20;;;;;;;-145.14;100.00;70583.66;5019962;28;20451;-73
2022/11/12 05:27:30;;;;;;;8.83;6.67;;;;;;;-145.14;100.00;70583.66;5019736;28;20185;-73
2022/11/12 05:29:55;;;;;;;8.27;6.70;;;;;;;-145.14;100.00;70583.66;5011034;28;20496;-73
2022/11/12 05:32:21;;;;;;;9.00;7.07;;;;;;;-145.14;100.00;70583.66;5011211;28;20218;-73
2022/11/12 05:34:47;;;;;;;13.40;7.27;;;;;;;-145.14;100.00;70583.66;5031538;28;20213;-73
2022/11/12 05:37:13;;;;;;;9.20;6.80;;;;;;;-145.14;100.00;70583.66;5014256;28;20196;-73
2022/11/12 05:39:38;;;;;;;8.90;6.20;;;;;;;-145.14;100.00;70583.66;5031345;28;20200;-73
2022/11/12 05:42:04;;;;;;;8.77;6.80;;;;;;;-145.14;100.00;70583.66;5031066;28;20540;-73
2022/11/12 05:44:30;;;;;;;8.33;6.50;;;;;;;-145.14;100.00;70583.66;5016909;28;20204;-74
2022/11/12 05:46:56;;;;;;;7.73;5.57;;;;;;;-145.14;100.00;70583.66;5019173;28;20451;-73
2022/11/12 05:49:21;;;;;;;6.87;6.03;;;;;;;-145.14;100.00;70583.66;5009544;28;20188;-73
2022/11/12 05:51:47;;;;;;;8.40;6.23;;;;;;;-145.14;100.00;70583.66;5034593;28;20697;-73
2022/11/12 05:54:12;;;;;;;7.97;6.17;;;;;;;-145.14;100.00;70583.66;5014838;28;20197;-73
2022/11/12 05:56:38;;;;;;;6.47;5.70;;;;;;;-145.14;100.00;70583.66;5012303;28;20249;-73
2022/11/12 05:59:06;;;;;;;6.80;5.70;;;;;;;-145.14;100.00;70583.66;5014425;28;20196;-73
2022/11/12 06:01:37;;;;;;;9.93;6.57;;;;;;;-145.14;100.00;70583.66;5015381;28;20985;-73
2022/11/12 06:04:02;;;;;;;8.40;5.63;;;;;;;-145.14;100.00;70583.66;5013912;28;20471;-73
2022/11/12 06:06:28;;;;;;;6.30;5.70;;;;;;;-145.14;100.00;70583.66;5031660;28;20482;-73
2022/11/12 06:08:53;;;;;;;7.17;5.67;;;;;;;-145.14;100.00;70583.66;5013748;28;20195;-73
2022/11/12 06:11:19;;;;;;;8.93;6.33;;;;;;;-145.14;100.00;70583.66;5028227;28;20207;-73
2022/11/12 06:13:44;;;;;;;9.27;5.87;;;;;;;-145.14;100.00;70583.66;5017868;28;20223;-73
2022/11/12 06:16:10;;;;;;;8.07;5.67;;;;;;;-145.14;100.00;70583.66;5030377;28;20191;-73
2022/11/12 06:18:36;;;;;;;6.93;5.73;;;;;;;-145.14;100.00;70583.66;5016650;28;20539;-73
2022/11/12 06:21:19;;;;;;;6.63;4.87;;;;;;;-145.14;100.00;70583.66;5011489;28;20303;-73
2022/11/12 06:23:45;;;;;;;6.37;5.37;;;;;;;-145.14;100.00;70583.66;5013641;28;21141;-72
2022/11/12 06:26:10;;;;;;;5.70;4.80;;;;;;;-145.14;100.00;70583.66;5015982;28;20450;-72
2022/11/12 06:28:36;;;;;;;6.80;5.03;;;;;;;-145.14;100.00;70583.66;5015904;28;20451;-72
2022/11/12 06:31:02;;;;;;;6.03;4.70;;;;;;;-145.14;100.00;70583.66;5011715;28;20213;-73
2022/11/12 06:33:27;;;;;;;8.00;6.07;;;;;;;-145.14;100.00;70583.66;5016942;28;20192;-74
2022/11/12 06:35:57;;;;;;;6.00;4.80;;;;;;;-145.14;100.00;70583.66;5017987;28;20235;-73
2022/11/12 06:38:23;;;;;;;7.53;5.17;;;;;;;-145.14;100.00;70583.66;5013494;28;20211;-73
2022/11/12 06:40:48;;;;;;;5.87;4.73;;;;;;;-145.14;100.00;70583.66;5014650;28;21051;-73
2022/11/12 06:43:14;;;;;;;7.03;4.80;;;;;;;-145.14;100.00;70583.66;5016223;28;20539;-73
2022/11/12 06:45:39;;;;;;;6.20;4.40;;;;;;;-145.14;100.00;70583.66;5032535;28;20188;-73
2022/11/12 06:48:05;;;;;;;5.63;4.97;;;;;;;-145.14;100.00;70583.66;5019364;28;20211;-73
2022/11/12 06:50:30;;;;;;;6.60;4.87;;;;;;;-145.14;100.00;70583.66;5019705;28;20274;-73
2022/11/12 06:52:59;;;;;;;5.77;4.57;;;;;;;-145.14;100.00;70583.66;5020231;28;20224;-73
2022/11/12 06:55:24;;;;;;;6.40;4.83;;;;;;;-145.14;100.00;70583.66;5018927;28;20195;-73
2022/11/12 06:57:52;;;;;;;6.57;4.90;;;;;;;-145.14;100.00;70583.66;5024912;28;20929;-73
2022/11/12 07:00:18;;;;;;;6.77;5.47;;;;;;;-145.14;100.00;70583.66;5032131;28;20272;-73
2022/11/12 07:02:44;;;;;;;5.10;4.60;;;;;;;-145.14;100.00;70583.66;5035670;28;20474;-73
2022/11/12 07:05:09;;;;;;;6.07;4.90;;;;;;;-145.14;100.00;70583.66;5036177;28;20503;-73
2022/11/12 07:07:35;;;;;;;5.57;4.87;;;;;;;-145.14;100.00;70583.66;5037627;28;20184;-73
2022/11/12 07:10:00;;;;;;;6.30;4.60;;;;;;;-145.14;100.00;70583.66;5035981;28;20188;-73
2022/11/12 07:12:26;;;;;;;6.17;5.03;;;;;;;-145.14;100.00;70583.66;5031243;28;20201;-73
2022/11/12 07:14:53;;;;;;;5.30;4.80;;;;;;;-145.14;100.00;70583.66;5021486;28;20696;-73
2022/11/12 07:17:18;;;;;;;5.70;4.63;;;;;;;-145.14;100.00;70583.66;5022311;28;20511;-73
2022/11/12 07:19:43;;;;;;;5.47;4.20;;;;;;;-145.14;100.00;70583.66;5021340;28;20534;-73
2022/11/12 07:22:09;;;;;;;7.60;4.70;;;;;;;-145.14;100.00;70583.66;5022857;28;20232;-72
2022/11/12 07:24:34;;;;;;;10.60;4.93;;;;;;;-145.14;100.00;70583.66;5022440;28;20238;-73
2022/11/12 07:27:00;;;;;;;5.23;4.20;;;;;;;-145.14;100.00;70583.66;5035809;28;20188;-73
2022/11/12 07:29:25;;;;;;;6.10;4.30;;;;;;;-145.14;100.00;70583.66;5033705;28;20223;-73
2022/11/12 07:31:51;;;;;;;5.90;4.70;;;;;;;-145.14;100.00;70583.66;5038254;28;20268;-72
2022/11/12 07:34:16;;;;;;;5.20;4.20;;;;;;;-145.14;100.00;70583.66;5020516;28;20711;-73
2022/11/12 07:36:42;;;;;;;6.63;5.17;;;;;;;-145.14;100.00;70583.66;5021539;28;20696;-73
2022/11/12 07:39:07;;;;;;;6.20;4.70;;;;;;;-145.14;100.00;70583.66;5023676;28;20203;-73
2022/11/12 07:41:32;;;;;;;5.47;4.03;;;;;;;-145.14;100.00;70583.66;5020730;28;20244;-73
2022/11/12 07:43:58;;;;;;;5.93;4.80;;;;;;;-145.14;100.00;70583.66;5022395;28;20275;-73
2022/11/12 07:46:26;;;;;;;7.67;5.00;;;;;;;-145.14;100.00;70583.66;5023156;28;20255;-72
2022/11/12 07:48:52;;;;;;;6.27;4.90;;;;;;;-145.14;100.00;70583.66;5023643;28;20290;-72
2022/11/12 07:51:23;;;;;;;6.60;5.00;;;;;;;-145.14;100.00;70583.66;5020766;28;20554;-73
2022/11/12 07:53:51;;;;;;;5.97;4.80;;;;;;;-145.14;100.00;70583.66;5024556;28;20431;-71
2022/11/12 07:56:19;;;;;;;5.60;4.77;;;;;;;-145.14;100.00;70583.66;5025371;28;20470;-72
2022/11/12 07:58:45;;;;;;;6.93;4.87;;;;;;;-145.14;100.00;70583.66;5023475;28;20845;-74
2022/11/12 08:01:29;;;;;;;6.47;4.90;;;;;;;-145.14;100.00;70583.66;5033803;28;20562;-73
2022/11/12 08:03:54;;;;;;;7.73;5.43;;;;;;;-145.14;100.00;70583.66;5034719;28;20442;-74
2022/11/12 08:06:20;;;;;;;7.77;5.33;;;;;;;-145.14;100.00;70583.66;5021617;28;20438;-74
2022/11/12 08:08:45;;;;;;;6.07;4.93;;;;;;;-145.14;100.00;70583.66;5019741;28;20280;-74
2022/11/12 08:11:11;;;;;;;6.50;4.83;;;;;;;-145.14;100.00;70583.66;5026297;28;20521;-72
2022/11/12 08:13:37;;;;;;;5.67;4.70;;;;;;;-145.14;100.00;70583.66;5008816;28;20192;-72
2022/11/12 08:16:04;;;;;;;6.23;5.00;;;;;;;-145.14;100.00;70583.66;5012342;28;20405;-73
2022/11/12 08:18:30;;;;;;;7.60;5.37;;;;;;;-145.14;100.00;70583.66;5011470;28;20227;-72
2022/11/12 08:24:12;;;;;;;6.60;5.90;;;;;;;-145.14;100.00;70583.66;4984469;28;20458;-72
2022/11/12 08:26:37;;;;;;;8.17;5.27;;;;;;;-145.14;100.00;70583.66;5010425;28;20439;-73
2022/11/12 08:29:04;;;;;;;6.73;5.10;;;;;;;-145.14;100.00;70583.66;5012880;28;20219;-75
2022/11/12 08:31:29;;;;;;;7.83;5.30;;;;;;;-145.14;100.00;70583.66;5019978;28;20278;-77
2022/11/12 08:33:55;;;;;;;9.30;5.17;;;;;;;-145.14;100.00;70583.66;5020963;28;21136;-75
2022/11/12 08:36:21;;;;;;;6.60;5.00;;;;;;;-145.14;100.00;70583.66;5019993;28;20188;-77
2022/11/12 08:38:46;;;;;;;12.07;6.03;;;;;;;-145.14;100.00;70583.66;5024107;28;20207;-76
2022/11/12 08:41:13;;;;;;;8.27;5.90;;;;;;;-145.14;100.00;70583.66;5014860;28;20477;-74
2022/11/12 08:43:40;;;;;;;9.13;6.10;;;;;;;-145.14;100.00;70583.66;5015604;28;20212;-74
2022/11/12 08:46:06;;;;;;;8.10;6.40;;;;;;;-145.14;100.00;70583.66;5016242;28;20457;-73
2022/11/12 08:48:33;;;;;;;11.40;7.50;;;;;;;-145.14;100.00;70583.66;5015534;28;20932;-74
2022/11/12 08:51:03;;;;;;;8.90;6.30;;;;;;;-145.14;100.00;70583.66;5016779;28;20677;-72
2022/11/12 08:53:29;;;;;;;11.63;7.27;;;;;;;-145.14;100.00;70583.66;5013796;28;20435;-75
2022/11/12 08:55:55;;;;;;;9.97;7.00;;;;;;;-145.14;100.00;70583.66;5019428;28;20435;-72
2022/11/12 08:58:22;;;;;;;8.60;7.60;;;;;;;-145.14;100.00;70583.66;5009973;28;20204;-74
2022/11/12 09:00:49;;;;;;;8.50;7.23;;;;;;;-145.14;100.00;70583.66;5023306;28;20498;-75
2022/11/12 09:03:20;;;;;;;16.57;7.87;;;;;;;-145.14;100.00;70583.66;5018642;28;20504;-74
2022/11/12 09:05:46;;;;;;;8.47;7.27;;;;;;;-145.14;100.00;70583.66;5021509;28;20937;-74
2022/11/12 09:08:16;;;;;;;10.30;8.37;;;;;;;-145.14;100.00;70583.66;5018433;28;20901;-75
2022/11/12 09:10:42;;;;;;;11.50;7.83;;;;;;;-145.14;100.00;70583.66;5033063;28;20438;-78
2022/11/12 09:13:19;;;;;;;12.63;8.03;;;;;;;-145.14;100.00;70583.66;5025794;28;20925;-75
2022/11/12 09:15:46;;;;;;;11.30;7.60;;;;;;;-145.14;100.00;70583.66;4999757;28;20442;-75
2022/11/12 09:18:17;;;;;;;13.63;8.40;;;;;;;-145.14;100.00;70583.66;5015555;28;20446;-75
2022/11/12 09:20:43;;;;;;;12.87;8.93;;;;;;;-145.14;100.00;70583.66;5029005;28;20478;-75
2022/11/12 09:23:11;;;;;;;14.03;9.07;;;;;;;-145.14;100.00;70583.66;5031690;28;20451;-75
2022/11/12 09:25:38;;;;;;;13.63;9.43;;;;;;;-145.14;100.00;70583.66;5007339;28;20455;-76
2022/11/12 09:28:10;;;;;;;18.53;10.50;;;;;;;-145.14;100.00;70583.66;5015108;28;20454;-74
2022/11/12 09:30:37;;;;;;;16.60;9.77;;;;;;;-145.14;100.00;70583.66;5015538;28;20449;-74
2022/11/12 09:33:03;;;;;;;13.40;10.07;;;;;;;-145.14;100.00;70583.66;5020810;28;20446;-75
2022/11/12 09:35:29;;;;;;;17.60;10.87;;;;;;;-145.14;100.00;70583.66;5016204;28;20818;-73
2022/11/12 09:37:56;;;;;;;19.30;12.70;;;;;;;-145.14;100.00;70583.66;5016815;28;20439;-73
2022/11/12 09:40:36;;;;;;;28.93;16.00;;;;;;;-145.14;100.00;70583.66;5010744;28;20867;-74
2022/11/12 09:43:14;;;;;;;38.37;17.10;;;;;;;-145.14;100.00;70583.66;5028068;28;20436;-74
2022/11/12 09:45:40;;;;;;;46.40;21.90;;;;;;;-145.14;100.00;70583.66;5006127;28;20431;-72
2022/11/12 09:48:11;;;;;;;37.60;19.60;;;;;;;-145.14;100.00;70583.66;5010055;28;21000;-72
2022/11/12 09:50:41;;;;;;;57.67;24.47;;;;;;;-145.14;100.00;70583.66;5018965;28;20904;-73
2022/11/12 09:53:21;;;;;;;51.80;25.70;;;;;;;-145.14;100.00;70583.66;5017682;28;20436;-73
2022/11/12 09:55:49;;;;;;;68.80;33.27;;;;;;;-145.14;100.00;70583.66;5016044;28;20526;-73
2022/11/12 09:58:17;;;;;;;57.43;30.40;;;;;;;-145.14;100.00;70583.66;5057285;22;20493;-82
2022/11/12 10:00:55;;;;;;;47.80;26.87;;;;;;;-145.14;100.00;70583.66;5058650;28;20465;-86
2022/11/12 10:03:48;;;;;;;59.20;30.00;;;;;;;-145.14;100.00;70583.66;5076574;28;20451;-86
2022/11/12 10:06:19;;;;;;;49.90;27.97;;;;;;;-145.14;100.00;70583.66;5062010;28;20426;-85
2022/11/12 10:09:08;;;;;;;63.83;31.87;;;;;;;-145.14;100.00;70583.66;5056487;28;21463;-86
2022/11/12 10:18:14;;;;;;;41.80;26.03;;;;;;;-145.14;100.00;70583.66;4979638;28;20499;-86
2022/11/12 10:21:09;;;;;;;47.07;24.93;;;;;;;-145.14;100.00;70583.66;5025835;28;20968;-85
2022/11/12 10:23:44;;;;;;;48.20;24.77;;;;;;;-145.14;100.00;70583.66;5038537;28;20939;-85
2022/11/12 10:26:15;;;;;;;49.60;24.57;;;;;;;-145.14;100.00;70583.66;5043590;28;21003;-85
2022/11/12 10:28:59;;;;;;;47.87;25.90;;;;;;;-145.14;100.00;70583.66;5037593;28;20473;-86
2022/11/12 10:31:28;;;;;;;52.40;25.90;;;;;;;-145.14;100.00;70583.66;5041690;28;20534;-85
2022/11/12 10:34:18;;;;;;;49.17;25.30;;;;;;;-145.14;100.00;70583.66;5054285;28;20444;-84
2022/11/12 10:37:01;;;;;;;34.07;20.00;;;;;;;-145.14;100.00;70583.66;5041003;28;20457;-84
2022/11/12 10:39:41;;;;;;;36.70;19.47;;;;;;;-145.14;100.00;70583.66;5039183;28;20438;-86
2022/11/12 10:42:10;;;;;;;29.13;18.50;;;;;;;-145.14;100.00;70583.66;5042709;28;20534;-86
2022/11/12 10:44:38;;;;;;;29.50;18.60;;;;;;;-145.14;100.00;70583.66;5047001;28;20442;-85
2022/11/12 10:47:26;;;;;;;31.87;20.07;;;;;;;-145.14;100.00;70583.66;5038914;28;20462;-85
2022/11/12 10:50:15;;;;;;;26.20;17.20;;;;;;;-145.14;100.00;70583.66;5040283;28;20484;-88
2022/11/12 10:52:52;;;;;;;27.07;18.50;;;;;;;-145.14;100.00;70583.66;5040866;28;20425;-82
2022/11/12 10:55:23;;;;;;;28.93;18.43;;;;;;;-145.14;100.00;70583.66;5035425;28;20517;-87
2022/11/12 10:58:05;;;;;;;28.80;19.47;;;;;;;-145.14;100.00;70583.66;5038310;28;20975;-86
2022/11/12 11:00:31;;;;;;;28.83;21.03;;;;;;;-145.14;100.00;70583.66;5057357;28;20501;-85
2022/11/12 11:03:03;;;;;;;30.10;19.97;;;;;;;-145.14;100.00;70583.66;5042250;28;20425;-87
2022/11/12 11:05:37;;;;;;;25.77;18.33;;;;;;;-145.14;100.00;70583.66;5044473;28;20810;-86
2022/11/12 11:08:09;;;;;;;26.90;19.20;;;;;;;-145.14;100.00;70583.66;5051982;28;20445;-87
2022/11/12 11:10:39;;;;;;;23.00;17.37;;;;;;;-145.14;100.00;70583.66;5040727;28;20422;-86
2022/11/12 11:13:08;;;;;;;23.70;18.97;;;;;;;-145.14;100.00;70583.66;5059104;28;20454;-86
2022/11/12 11:15:34;;;;;;;20.23;17.20;;;;;;;-145.14;100.00;70583.66;5043346;28;20458;-86
2022/11/12 11:18:00;;;;;;;31.17;17.20;;;;;;;-145.14;100.00;70583.66;5040454;28;20548;-87
2022/11/12 11:20:46;;;;;;;20.47;16.93;;;;;;;-145.14;100.00;70583.66;5044032;28;20847;-87
2022/11/12 11:23:25;;;;;;;19.73;16.80;;;;;;;-145.14;100.00;70583.66;5040032;28;20532;-87
2022/11/12 11:25:53;;;;;;;19.90;16.03;;;;;;;-145.14;100.00;70583.66;5041142;28;20449;-87
2022/11/12 11:28:40;;;;;;;23.87;17.03;;;;;;;-145.14;100.00;70583.66;5055527;28;20469;-86
2022/11/12 11:31:37;;;;;;;20.80;16.70;;;;;;;-145.14;100.00;70583.66;5041257;28;20413;-86
2022/11/12 11:34:53;;;;;;;22.27;17.40;;;;;;;-145.14;100.00;70583.66;5052775;28;20992;-86
2022/11/12 11:37:25;;;;;;;20.47;15.30;;;;;;;-145.14;100.00;70583.66;5004902;28;20909;-86
2022/11/12 11:39:57;;;;;;;20.73;16.27;;;;;;;-145.14;100.00;70583.66;5044187;28;20418;-87
2022/11/12 11:42:52;;;;;;;21.63;17.00;;;;;;;-145.14;100.00;70583.66;5039642;28;20454;-84